sensor_id;sensor_type;location;lat;lon;timestamp;P1;P2;P0
69746;PMS7003;57018;50.278;19.134;2023-03-22T00:02:00;91.50;82.00;44.25
69746;PMS7003;57018;50.278;19.134;2023-03-22T00:04:30;93.00;83.50;49.00
69746;PMS7003;57018;50.278;19.134;2023-03-22T00:07:00;98.00;87.50;52.00
69746;PMS7003;57018;50.278;19.134;2023-03-22T00:09:30;90.33;79.33;46.67
69746;PMS7003;57018;50.278;19.134;2023-03-22T00:12:00;89.33;77.33;43.33
69746;PMS7003;57018;50.278;19.134;2023-03-22T00:14:30;98.00;82.00;48.00
69746;PMS7003;57018;50.278;19.134;2023-03-22T00:17:00;90.67;71.00;42.00
69746;PMS7003;57018;50.278;19.134;2023-03-22T00:19:29;89.00;73.50;41.50
69746;PMS7003;57018;50.278;19.134;2023-03-22T00:22:00;100.00;85.50;51.00
69746;PMS7003;57018;50.278;19.134;2023-03-22T00:24:32;92.67;70.67;44.00
69746;PMS7003;57018;50.278;19.134;2023-03-22T00:27:01;90.00;76.00;45.00
69746;PMS7003;57018;50.278;19.134;2023-03-22T00:29:31;89.00;73.00;45.00
69746;PMS7003;57018;50.278;19.134;2023-03-22T00:32:01;88.50;74.00;46.50
69746;PMS7003;57018;50.278;19.134;2023-03-22T00:34:31;84.50;67.50;41.50
69746;PMS7003;57018;50.278;19.134;2023-03-22T00:37:01;82.00;68.50;44.00
69746;PMS7003;57018;50.278;19.134;2023-03-22T00:39:31;84.00;68.33;42.00
69746;PMS7003;57018;50.278;19.134;2023-03-22T00:42:02;89.00;74.00;42.50
69746;PMS7003;57018;50.278;19.134;2023-03-22T00:44:33;93.67;79.00;43.00
69746;PMS7003;57018;50.278;19.134;2023-03-22T00:47:03;96.50;81.50;45.50
69746;PMS7003;57018;50.278;19.134;2023-03-22T00:49:33;93.67;85.33;50.00
69746;PMS7003;57018;50.278;19.134;2023-03-22T00:52:03;92.00;82.00;48.00
69746;PMS7003;57018;50.278;19.134;2023-03-22T00:54:33;104.00;93.50;50.00
69746;PMS7003;57018;50.278;19.134;2023-03-22T00:57:03;101.33;87.67;51.33
69746;PMS7003;57018;50.278;19.134;2023-03-22T00:59:33;105.00;87.00;50.00
69746;PMS7003;57018;50.278;19.134;2023-03-22T01:02:04;97.00;88.00;52.00
69746;PMS7003;57018;50.278;19.134;2023-03-22T01:04:35;98.75;86.25;52.25
69746;PMS7003;57018;50.278;19.134;2023-03-22T01:07:05;97.50;85.50;48.50
69746;PMS7003;57018;50.278;19.134;2023-03-22T01:09:35;101.50;87.00;50.50
69746;PMS7003;57018;50.278;19.134;2023-03-22T01:12:05;102.33;91.33;55.33
69746;PMS7003;57018;50.278;19.134;2023-03-22T01:14:35;97.00;83.50;51.00
69746;PMS7003;57018;50.278;19.134;2023-03-22T01:17:05;102.50;85.50;49.50
69746;PMS7003;57018;50.278;19.134;2023-03-22T01:19:35;100.67;90.00;53.33
69746;PMS7003;57018;50.278;19.134;2023-03-22T01:22:06;94.00;78.75;51.25
69746;PMS7003;57018;50.278;19.134;2023-03-22T01:24:36;93.50;76.00;43.00
69746;PMS7003;57018;50.278;19.134;2023-03-22T01:27:06;96.00;78.00;48.00
69746;PMS7003;57018;50.278;19.134;2023-03-22T01:29:36;93.50;82.50;50.00
69746;PMS7003;57018;50.278;19.134;2023-03-22T01:32:06;94.00;78.00;44.00
69746;PMS7003;57018;50.278;19.134;2023-03-22T01:34:36;101.00;85.33;45.33
69746;PMS7003;57018;50.278;19.134;2023-03-22T01:37:06;99.00;83.67;48.67
69746;PMS7003;57018;50.278;19.134;2023-03-22T01:39:35;97.00;87.00;49.00
69746;PMS7003;57018;50.278;19.134;2023-03-22T01:42:08;104.50;89.50;48.00
69746;PMS7003;57018;50.278;19.134;2023-03-22T01:44:41;106.00;96.00;53.00
69746;PMS7003;57018;50.278;19.134;2023-03-22T01:47:12;104.00;87.00;51.00
69746;PMS7003;57018;50.278;19.134;2023-03-22T01:49:42;97.50;81.00;50.00
69746;PMS7003;57018;50.278;19.134;2023-03-22T01:52:12;100.50;89.50;51.00
69746;PMS7003;57018;50.278;19.134;2023-03-22T01:54:44;104.00;95.00;56.00
69746;PMS7003;57018;50.278;19.134;2023-03-22T01:57:16;100.00;90.00;51.00
69746;PMS7003;57018;50.278;19.134;2023-03-22T01:59:47;102.00;89.00;51.00
69746;PMS7003;57018;50.278;19.134;2023-03-22T02:02:17;97.50;84.50;51.50
69746;PMS7003;57018;50.278;19.134;2023-03-22T02:04:48;89.33;66.00;40.33
69746;PMS7003;57018;50.278;19.134;2023-03-22T02:10:12;108.00;84.00;54.00
69746;PMS7003;57018;50.278;19.134;2023-03-22T02:12:47;94.67;78.00;44.00
69746;PMS7003;57018;50.278;19.134;2023-03-22T02:15:28;101.00;85.00;53.00
69746;PMS7003;57018;50.278;19.134;2023-03-22T02:18:11;96.00;83.00;48.00
69746;PMS7003;57018;50.278;19.134;2023-03-22T02:24:19;103.50;95.50;55.00
69746;PMS7003;57018;50.278;19.134;2023-03-22T02:27:16;102.50;93.00;51.00
69746;PMS7003;57018;50.278;19.134;2023-03-22T02:29:55;101.00;84.00;49.00
69746;PMS7003;57018;50.278;19.134;2023-03-22T02:35:41;98.00;87.00;51.00
69746;PMS7003;57018;50.278;19.134;2023-03-22T02:41:29;89.00;68.00;43.00
69746;PMS7003;57018;50.278;19.134;2023-03-22T02:44:12;93.50;74.50;43.50
69746;PMS7003;57018;50.278;19.134;2023-03-22T02:46:51;100.00;87.00;50.00
69746;PMS7003;57018;50.278;19.134;2023-03-22T02:49:30;97.00;81.00;46.00
69746;PMS7003;57018;50.278;19.134;2023-03-22T02:52:06;96.00;83.00;50.00
69746;PMS7003;57018;50.278;19.134;2023-03-22T02:54:43;90.00;71.00;46.00
69746;PMS7003;57018;50.278;19.134;2023-03-22T02:59:49;94.00;78.00;44.00
69746;PMS7003;57018;50.278;19.134;2023-03-22T03:02:22;84.00;68.00;42.00
69746;PMS7003;57018;50.278;19.134;2023-03-22T03:04:55;91.50;73.50;43.00
69746;PMS7003;57018;50.278;19.134;2023-03-22T03:07:26;91.00;71.00;41.00
69746;PMS7003;57018;50.278;19.134;2023-03-22T03:12:27;91.50;76.00;42.00
69746;PMS7003;57018;50.278;19.134;2023-03-22T03:14:56;92.00;78.50;43.00
69746;PMS7003;57018;50.278;19.134;2023-03-22T03:17:31;92.00;71.00;40.00
69746;PMS7003;57018;50.278;19.134;2023-03-22T03:20:15;92.00;72.50;42.00
69746;PMS7003;57018;50.278;19.134;2023-03-22T03:22:59;93.00;75.00;41.00
69746;PMS7003;57018;50.278;19.134;2023-03-22T03:25:40;89.00;72.00;43.00
69746;PMS7003;57018;50.278;19.134;2023-03-22T03:28:21;91.00;73.00;43.00
69746;PMS7003;57018;50.278;19.134;2023-03-22T03:31:05;90.00;72.50;42.00
69746;PMS7003;57018;50.278;19.134;2023-03-22T03:33:46;86.50;70.50;39.00
69746;PMS7003;57018;50.278;19.134;2023-03-22T03:36:21;88.00;73.00;45.00
69746;PMS7003;57018;50.278;19.134;2023-03-22T03:38:53;86.00;68.00;38.00
69746;PMS7003;57018;50.278;19.134;2023-03-22T03:41:26;92.00;75.00;43.00
69746;PMS7003;57018;50.278;19.134;2023-03-22T03:43:57;89.00;73.00;42.00
69746;PMS7003;57018;50.278;19.134;2023-03-22T03:46:28;91.50;74.50;42.50
69746;PMS7003;57018;50.278;19.134;2023-03-22T03:48:58;87.00;73.50;42.00
69746;PMS7003;57018;50.278;19.134;2023-03-22T03:51:30;87.00;71.67;42.33
69746;PMS7003;57018;50.278;19.134;2023-03-22T03:54:12;91.50;74.00;41.00
69746;PMS7003;57018;50.278;19.134;2023-03-22T03:56:42;93.50;80.00;45.50
69746;PMS7003;57018;50.278;19.134;2023-03-22T03:59:13;90.50;67.50;39.00
69746;PMS7003;57018;50.278;19.134;2023-03-22T04:01:43;82.00;61.00;39.00
69746;PMS7003;57018;50.278;19.134;2023-03-22T04:04:18;83.00;65.00;39.00
69746;PMS7003;57018;50.278;19.134;2023-03-22T04:06:52;71.00;56.00;37.00
69746;PMS7003;57018;50.278;19.134;2023-03-22T04:09:24;82.00;63.00;39.00
69746;PMS7003;57018;50.278;19.134;2023-03-22T04:11:55;81.00;60.00;37.00
69746;PMS7003;57018;50.278;19.134;2023-03-22T04:14:25;80.00;63.00;40.00
69746;PMS7003;57018;50.278;19.134;2023-03-22T04:16:55;80.00;62.00;37.00
69746;PMS7003;57018;50.278;19.134;2023-03-22T04:19:25;79.00;61.00;37.00
69746;PMS7003;57018;50.278;19.134;2023-03-22T04:21:54;80.50;61.25;37.75
69746;PMS7003;57018;50.278;19.134;2023-03-22T04:24:26;81.00;62.00;37.00
69746;PMS7003;57018;50.278;19.134;2023-03-22T04:26:56;82.00;62.00;36.50
69746;PMS7003;57018;50.278;19.134;2023-03-22T04:29:25;81.50;60.50;37.00
69746;PMS7003;57018;50.278;19.134;2023-03-22T04:31:58;79.50;60.50;36.00
69746;PMS7003;57018;50.278;19.134;2023-03-22T04:34:27;79.50;61.00;37.50
69746;PMS7003;57018;50.278;19.134;2023-03-22T04:36:58;76.00;61.00;36.50
69746;PMS7003;57018;50.278;19.134;2023-03-22T04:39:28;76.00;58.00;35.00
69746;PMS7003;57018;50.278;19.134;2023-03-22T04:41:58;84.00;61.00;37.00
69746;PMS7003;57018;50.278;19.134;2023-03-22T04:44:28;77.00;60.00;35.00
69746;PMS7003;57018;50.278;19.134;2023-03-22T04:46:58;81.33;62.67;37.33
69746;PMS7003;57018;50.278;19.134;2023-03-22T04:49:28;82.00;63.00;40.00
69746;PMS7003;57018;50.278;19.134;2023-03-22T04:51:59;78.00;61.00;40.00
69746;PMS7003;57018;50.278;19.134;2023-03-22T04:54:29;81.50;64.50;37.00
69746;PMS7003;57018;50.278;19.134;2023-03-22T04:56:59;78.00;61.00;39.00
69746;PMS7003;57018;50.278;19.134;2023-03-22T04:59:29;79.00;60.00;38.00
69746;PMS7003;57018;50.278;19.134;2023-03-22T05:01:58;84.00;63.50;40.00
69746;PMS7003;57018;50.278;19.134;2023-03-22T05:04:28;81.00;62.50;37.00
69746;PMS7003;57018;50.278;19.134;2023-03-22T05:06:58;80.00;64.00;37.00
69746;PMS7003;57018;50.278;19.134;2023-03-22T05:09:28;85.00;60.00;36.50
69746;PMS7003;57018;50.278;19.134;2023-03-22T05:14:27;79.00;63.00;39.00
69746;PMS7003;57018;50.278;19.134;2023-03-22T05:16:57;80.00;62.00;37.00
69746;PMS7003;57018;50.278;19.134;2023-03-22T05:19:27;82.50;61.50;38.00
69746;PMS7003;57018;50.278;19.134;2023-03-22T05:21:57;75.00;61.00;38.00
69746;PMS7003;57018;50.278;19.134;2023-03-22T05:24:28;79.00;60.00;37.00
69746;PMS7003;57018;50.278;19.134;2023-03-22T05:26:58;74.00;56.00;36.00
69746;PMS7003;57018;50.278;19.134;2023-03-22T05:29:29;74.00;57.00;34.00
69746;PMS7003;57018;50.278;19.134;2023-03-22T05:32:02;53.00;43.00;16.00
69746;PMS7003;57018;50.278;19.134;2023-03-22T05:34:33;67.00;52.00;32.00
69746;PMS7003;57018;50.278;19.134;2023-03-22T05:37:03;71.50;55.00;34.50
69746;PMS7003;57018;50.278;19.134;2023-03-22T05:39:33;67.50;52.00;33.50
69746;PMS7003;57018;50.278;19.134;2023-03-22T05:42:02;68.00;51.00;33.00
69746;PMS7003;57018;50.278;19.134;2023-03-22T05:44:32;76.00;55.00;34.00
69746;PMS7003;57018;50.278;19.134;2023-03-22T05:47:02;72.00;54.00;33.00
69746;PMS7003;57018;50.278;19.134;2023-03-22T05:49:32;66.00;54.00;36.00
69746;PMS7003;57018;50.278;19.134;2023-03-22T05:52:02;71.50;55.50;33.50
69746;PMS7003;57018;50.278;19.134;2023-03-22T05:54:33;68.00;54.00;33.00
69746;PMS7003;57018;50.278;19.134;2023-03-22T05:57:03;73.00;53.00;35.00
69746;PMS7003;57018;50.278;19.134;2023-03-22T05:59:33;67.50;51.50;31.00
69746;PMS7003;57018;50.278;19.134;2023-03-22T06:02:03;74.50;55.00;35.00
69746;PMS7003;57018;50.278;19.134;2023-03-22T06:04:33;72.00;56.00;35.00
69746;PMS7003;57018;50.278;19.134;2023-03-22T06:07:03;69.33;53.00;35.00
69746;PMS7003;57018;50.278;19.134;2023-03-22T06:09:33;75.00;59.00;38.00
69746;PMS7003;57018;50.278;19.134;2023-03-22T06:12:03;72.50;55.50;35.00
69746;PMS7003;57018;50.278;19.134;2023-03-22T06:14:34;67.50;51.00;34.50
69746;PMS7003;57018;50.278;19.134;2023-03-22T06:17:04;24.00;21.00;20.50
69746;PMS7003;57018;50.278;19.134;2023-03-22T06:19:34;70.00;52.00;30.00
69746;PMS7003;57018;50.278;19.134;2023-03-22T06:22:04;71.00;54.00;34.00
69746;PMS7003;57018;50.278;19.134;2023-03-22T06:24:33;64.00;51.00;32.00
69746;PMS7003;57018;50.278;19.134;2023-03-22T06:27:06;71.00;56.00;34.00
69746;PMS7003;57018;50.278;19.134;2023-03-22T06:29:36;69.00;55.00;35.50
69746;PMS7003;57018;50.278;19.134;2023-03-22T06:32:06;73.00;57.00;36.00
69746;PMS7003;57018;50.278;19.134;2023-03-22T06:34:36;75.50;57.50;36.00
69746;PMS7003;57018;50.278;19.134;2023-03-22T06:37:06;75.50;58.50;38.00
69746;PMS7003;57018;50.278;19.134;2023-03-22T06:39:36;73.33;57.00;35.67
69746;PMS7003;57018;50.278;19.134;2023-03-22T06:42:06;73.00;57.00;36.00
69746;PMS7003;57018;50.278;19.134;2023-03-22T06:47:05;73.00;53.00;34.00
69746;PMS7003;57018;50.278;19.134;2023-03-22T06:49:35;69.00;55.00;35.00
69746;PMS7003;57018;50.278;19.134;2023-03-22T06:52:05;75.00;58.00;37.00
69746;PMS7003;57018;50.278;19.134;2023-03-22T06:54:36;77.00;57.00;36.00
69746;PMS7003;57018;50.278;19.134;2023-03-22T06:57:06;75.00;57.00;36.00
69746;PMS7003;57018;50.278;19.134;2023-03-22T07:02:04;65.00;53.00;35.00
69746;PMS7003;57018;50.278;19.134;2023-03-22T07:04:37;73.00;56.00;34.00
69746;PMS7003;57018;50.278;19.134;2023-03-22T07:07:07;75.00;56.00;36.00
69746;PMS7003;57018;50.278;19.134;2023-03-22T07:09:37;69.00;54.00;36.00
69746;PMS7003;57018;50.278;19.134;2023-03-22T07:12:10;66.00;51.00;33.00
69746;PMS7003;57018;50.278;19.134;2023-03-22T07:14:40;73.00;56.00;35.00
69746;PMS7003;57018;50.278;19.134;2023-03-22T07:17:10;68.00;53.00;33.00
69746;PMS7003;57018;50.278;19.134;2023-03-22T07:19:42;66.50;52.50;34.00
69746;PMS7003;57018;50.278;19.134;2023-03-22T07:22:13;66.00;51.00;29.00
69746;PMS7003;57018;50.278;19.134;2023-03-22T07:24:43;70.00;54.00;36.00
69746;PMS7003;57018;50.278;19.134;2023-03-22T07:27:13;71.00;55.00;36.00
69746;PMS7003;57018;50.278;19.134;2023-03-22T07:29:44;73.00;57.00;35.00
69746;PMS7003;57018;50.278;19.134;2023-03-22T07:32:14;72.00;56.00;36.00
69746;PMS7003;57018;50.278;19.134;2023-03-22T07:34:44;67.50;52.00;34.00
69746;PMS7003;57018;50.278;19.134;2023-03-22T07:37:14;71.33;53.33;34.67
69746;PMS7003;57018;50.278;19.134;2023-03-22T07:39:45;66.00;53.00;35.00
69746;PMS7003;57018;50.278;19.134;2023-03-22T07:42:15;69.00;54.00;36.00
69746;PMS7003;57018;50.278;19.134;2023-03-22T07:44:45;70.00;53.00;34.00
69746;PMS7003;57018;50.278;19.134;2023-03-22T07:47:15;67.00;53.50;34.00
69746;PMS7003;57018;50.278;19.134;2023-03-22T07:49:46;69.67;53.00;35.33
69746;PMS7003;57018;50.278;19.134;2023-03-22T07:52:19;72.50;55.00;35.00
69746;PMS7003;57018;50.278;19.134;2023-03-22T07:54:51;66.50;52.00;32.50
69746;PMS7003;57018;50.278;19.134;2023-03-22T07:57:21;67.00;53.00;35.00
69746;PMS7003;57018;50.278;19.134;2023-03-22T07:59:51;71.00;54.00;33.00
69746;PMS7003;57018;50.278;19.134;2023-03-22T08:02:23;69.00;53.50;33.50
69746;PMS7003;57018;50.278;19.134;2023-03-22T08:04:53;66.00;51.00;32.00
69746;PMS7003;57018;50.278;19.134;2023-03-22T08:07:24;60.00;48.50;30.50
69746;PMS7003;57018;50.278;19.134;2023-03-22T08:12:24;64.50;49.50;31.50
69746;PMS7003;57018;50.278;19.134;2023-03-22T08:14:55;61.50;48.00;29.50
69746;PMS7003;57018;50.278;19.134;2023-03-22T08:17:25;62.00;49.00;31.00
69746;PMS7003;57018;50.278;19.134;2023-03-22T08:19:56;63.00;49.00;31.00
69746;PMS7003;57018;50.278;19.134;2023-03-22T08:22:26;63.00;50.00;31.00
69746;PMS7003;57018;50.278;19.134;2023-03-22T08:24:56;62.00;49.00;31.00
69746;PMS7003;57018;50.278;19.134;2023-03-22T08:27:27;62.00;49.00;32.00
69746;PMS7003;57018;50.278;19.134;2023-03-22T08:29:59;59.50;48.50;30.00
69746;PMS7003;57018;50.278;19.134;2023-03-22T08:32:31;60.00;47.00;31.00
69746;PMS7003;57018;50.278;19.134;2023-03-22T08:35:03;61.00;48.00;31.00
69746;PMS7003;57018;50.278;19.134;2023-03-22T08:37:33;63.00;50.00;32.00
69746;PMS7003;57018;50.278;19.134;2023-03-22T08:40:06;52.00;43.00;27.00
69746;PMS7003;57018;50.278;19.134;2023-03-22T08:42:38;62.00;49.00;31.00
69746;PMS7003;57018;50.278;19.134;2023-03-22T08:45:09;60.00;47.00;31.00
69746;PMS7003;57018;50.278;19.134;2023-03-22T08:47:38;57.50;47.00;29.50
69746;PMS7003;57018;50.278;19.134;2023-03-22T08:50:10;55.00;45.00;29.00
69746;PMS7003;57018;50.278;19.134;2023-03-22T08:52:42;56.00;44.00;28.00
69746;PMS7003;57018;50.278;19.134;2023-03-22T08:55:13;57.00;45.50;30.00
69746;PMS7003;57018;50.278;19.134;2023-03-22T08:57:44;56.00;46.00;29.00
69746;PMS7003;57018;50.278;19.134;2023-03-22T09:00:18;55.00;44.00;29.00
69746;PMS7003;57018;50.278;19.134;2023-03-22T09:02:51;53.00;44.00;29.00
69746;PMS7003;57018;50.278;19.134;2023-03-22T09:05:21;52.00;43.00;27.00
69746;PMS7003;57018;50.278;19.134;2023-03-22T09:07:52;58.00;46.00;30.00
69746;PMS7003;57018;50.278;19.134;2023-03-22T09:10:25;51.33;41.67;26.33
69746;PMS7003;57018;50.278;19.134;2023-03-22T09:12:56;57.00;46.50;30.50
69746;PMS7003;57018;50.278;19.134;2023-03-22T09:15:26;54.00;42.33;27.67
69746;PMS7003;57018;50.278;19.134;2023-03-22T09:18:00;51.75;42.25;27.50
69746;PMS7003;57018;50.278;19.134;2023-03-22T09:20:32;57.00;47.00;31.00
69746;PMS7003;57018;50.278;19.134;2023-03-22T09:23:03;52.00;42.00;25.00
69746;PMS7003;57018;50.278;19.134;2023-03-22T09:25:34;51.00;44.00;29.00
69746;PMS7003;57018;50.278;19.134;2023-03-22T09:28:05;53.00;43.00;31.00
69746;PMS7003;57018;50.278;19.134;2023-03-22T09:30:38;53.00;42.00;28.00
69746;PMS7003;57018;50.278;19.134;2023-03-22T09:33:11;51.00;41.00;28.00
69746;PMS7003;57018;50.278;19.134;2023-03-22T09:35:42;60.33;47.33;30.00
69746;PMS7003;57018;50.278;19.134;2023-03-22T09:38:13;47.50;39.50;25.00
69746;PMS7003;57018;50.278;19.134;2023-03-22T09:40:49;49.00;39.00;25.00
69746;PMS7003;57018;50.278;19.134;2023-03-22T09:43:27;49.00;39.00;25.00
69746;PMS7003;57018;50.278;19.134;2023-03-22T09:46:01;52.00;43.00;26.00
69746;PMS7003;57018;50.278;19.134;2023-03-22T09:48:34;50.00;39.00;22.00
69746;PMS7003;57018;50.278;19.134;2023-03-22T09:51:25;49.33;39.00;22.67
69746;PMS7003;57018;50.278;19.134;2023-03-22T09:54:03;42.00;34.00;21.00
69746;PMS7003;57018;50.278;19.134;2023-03-22T09:56:40;44.00;35.50;23.00
69746;PMS7003;57018;50.278;19.134;2023-03-22T09:59:16;51.00;41.00;25.00
69746;PMS7003;57018;50.278;19.134;2023-03-22T10:01:52;40.00;34.50;23.00
69746;PMS7003;57018;50.278;19.134;2023-03-22T10:04:47;39.50;35.50;22.00
69746;PMS7003;57018;50.278;19.134;2023-03-22T10:07:26;41.00;35.00;24.00
69746;PMS7003;57018;50.278;19.134;2023-03-22T10:10:05;40.00;36.00;23.00
69746;PMS7003;57018;50.278;19.134;2023-03-22T10:12:45;43.00;38.00;23.00
69746;PMS7003;57018;50.278;19.134;2023-03-22T10:15:23;38.00;32.50;21.50
69746;PMS7003;57018;50.278;19.134;2023-03-22T10:17:59;48.00;37.00;23.00
69746;PMS7003;57018;50.278;19.134;2023-03-22T10:20:37;45.00;41.00;25.00
69746;PMS7003;57018;50.278;19.134;2023-03-22T10:23:11;44.00;38.00;24.00
69746;PMS7003;57018;50.278;19.134;2023-03-22T10:25:45;49.00;42.00;27.00
69746;PMS7003;57018;50.278;19.134;2023-03-22T10:28:20;50.00;41.00;27.00
69746;PMS7003;57018;50.278;19.134;2023-03-22T10:30:53;52.00;41.50;27.00
69746;PMS7003;57018;50.278;19.134;2023-03-22T10:33:30;45.00;35.00;22.00
69746;PMS7003;57018;50.278;19.134;2023-03-22T10:36:06;44.50;39.00;27.00
69746;PMS7003;57018;50.278;19.134;2023-03-22T10:38:44;57.00;45.50;28.50
69746;PMS7003;57018;50.278;19.134;2023-03-22T10:41:16;51.00;41.50;27.50
69746;PMS7003;57018;50.278;19.134;2023-03-22T10:43:50;42.50;35.50;24.50
69746;PMS7003;57018;50.278;19.134;2023-03-22T10:46:25;47.00;37.00;23.50
69746;PMS7003;57018;50.278;19.134;2023-03-22T10:49:09;47.00;37.00;27.00
69746;PMS7003;57018;50.278;19.134;2023-03-22T10:51:47;46.00;36.00;24.00
69746;PMS7003;57018;50.278;19.134;2023-03-22T10:54:19;36.00;32.00;21.00
69746;PMS7003;57018;50.278;19.134;2023-03-22T10:56:51;44.50;37.50;24.50
69746;PMS7003;57018;50.278;19.134;2023-03-22T11:02:20;45.00;38.00;23.00
69746;PMS7003;57018;50.278;19.134;2023-03-22T11:04:54;37.00;32.50;21.00
69746;PMS7003;57018;50.278;19.134;2023-03-22T11:07:38;34.00;30.50;21.00
69746;PMS7003;57018;50.278;19.134;2023-03-22T11:10:16;38.67;35.00;21.67
69746;PMS7003;57018;50.278;19.134;2023-03-22T11:12:50;44.00;35.00;21.00
69746;PMS7003;57018;50.278;19.134;2023-03-22T11:15:24;52.00;40.00;25.00
69746;PMS7003;57018;50.278;19.134;2023-03-22T11:18:00;40.00;33.00;21.50
69746;PMS7003;57018;50.278;19.134;2023-03-22T11:20:33;40.00;33.00;20.00
69746;PMS7003;57018;50.278;19.134;2023-03-22T11:23:08;40.00;35.00;21.00
69746;PMS7003;57018;50.278;19.134;2023-03-22T11:25:50;33.00;25.00;16.00
69746;PMS7003;57018;50.278;19.134;2023-03-22T11:28:27;28.50;28.00;16.00
69746;PMS7003;57018;50.278;19.134;2023-03-22T11:31:03;31.00;26.50;18.50
69746;PMS7003;57018;50.278;19.134;2023-03-22T11:33:36;28.00;25.00;17.00
69746;PMS7003;57018;50.278;19.134;2023-03-22T11:36:21;28.00;25.00;14.00
69746;PMS7003;57018;50.278;19.134;2023-03-22T11:38:56;29.33;27.33;17.67
69746;PMS7003;57018;50.278;19.134;2023-03-22T11:41:29;27.00;25.00;16.00
69746;PMS7003;57018;50.278;19.134;2023-03-22T11:44:05;31.00;28.00;18.00
69746;PMS7003;57018;50.278;19.134;2023-03-22T11:46:39;23.50;22.50;13.50
69746;PMS7003;57018;50.278;19.134;2023-03-22T11:49:21;26.00;23.25;13.50
69746;PMS7003;57018;50.278;19.134;2023-03-22T11:52:21;27.00;25.00;14.00
69746;PMS7003;57018;50.278;19.134;2023-03-22T11:54:53;28.00;25.00;18.00
69746;PMS7003;57018;50.278;19.134;2023-03-22T11:57:27;24.00;24.00;15.00
69746;PMS7003;57018;50.278;19.134;2023-03-22T12:00:04;20.33;18.67;13.67
69746;PMS7003;57018;50.278;19.134;2023-03-22T12:02:42;23.50;21.00;17.00
69746;PMS7003;57018;50.278;19.134;2023-03-22T12:05:19;21.00;16.00;10.00
69746;PMS7003;57018;50.278;19.134;2023-03-22T12:07:54;17.00;17.00;13.50
69746;PMS7003;57018;50.278;19.134;2023-03-22T12:10:29;18.00;16.00;12.00
69746;PMS7003;57018;50.278;19.134;2023-03-22T12:13:05;20.50;18.50;13.00
69746;PMS7003;57018;50.278;19.134;2023-03-22T12:15:41;17.00;14.00;10.00
69746;PMS7003;57018;50.278;19.134;2023-03-22T12:18:16;15.00;15.00;10.00
69746;PMS7003;57018;50.278;19.134;2023-03-22T12:20:53;11.50;10.50;8.00
69746;PMS7003;57018;50.278;19.134;2023-03-22T12:23:26;12.00;12.00;8.50
69746;PMS7003;57018;50.278;19.134;2023-03-22T12:25:59;16.67;14.00;10.00
69746;PMS7003;57018;50.278;19.134;2023-03-22T12:28:33;12.00;11.00;8.00
69746;PMS7003;57018;50.278;19.134;2023-03-22T12:31:10;16.67;13.67;10.00
69746;PMS7003;57018;50.278;19.134;2023-03-22T12:33:47;16.00;15.00;10.50
69746;PMS7003;57018;50.278;19.134;2023-03-22T12:36:23;16.00;16.00;11.00
69746;PMS7003;57018;50.278;19.134;2023-03-22T12:39:01;16.00;15.00;11.00
69746;PMS7003;57018;50.278;19.134;2023-03-22T12:41:34;16.00;16.00;11.00
69746;PMS7003;57018;50.278;19.134;2023-03-22T12:44:09;19.00;15.00;12.00
69746;PMS7003;57018;50.278;19.134;2023-03-22T12:46:48;17.00;15.00;11.00
69746;PMS7003;57018;50.278;19.134;2023-03-22T12:49:24;18.00;18.00;11.00
69746;PMS7003;57018;50.278;19.134;2023-03-22T12:52:02;18.33;15.33;10.00
69746;PMS7003;57018;50.278;19.134;2023-03-22T12:54:40;15.00;14.00;9.00
69746;PMS7003;57018;50.278;19.134;2023-03-22T12:57:11;14.00;13.00;8.00
69746;PMS7003;57018;50.278;19.134;2023-03-22T12:59:44;18.50;15.50;9.50
69746;PMS7003;57018;50.278;19.134;2023-03-22T13:02:19;14.75;12.00;7.25
69746;PMS7003;57018;50.278;19.134;2023-03-22T13:04:56;14.50;10.25;7.75
69746;PMS7003;57018;50.278;19.134;2023-03-22T13:07:33;9.00;9.00;6.33
69746;PMS7003;57018;50.278;19.134;2023-03-22T13:13:15;12.00;11.00;8.00
69746;PMS7003;57018;50.278;19.134;2023-03-22T13:16:01;13.00;11.00;8.00
69746;PMS7003;57018;50.278;19.134;2023-03-22T13:21:43;16.00;16.00;9.50
69746;PMS7003;57018;50.278;19.134;2023-03-22T13:24:21;14.00;14.00;9.00
69746;PMS7003;57018;50.278;19.134;2023-03-22T13:26:52;11.00;11.00;9.00
69746;PMS7003;57018;50.278;19.134;2023-03-22T13:29:32;14.50;14.50;9.00
69746;PMS7003;57018;50.278;19.134;2023-03-22T13:32:05;14.33;13.67;8.33
69746;PMS7003;57018;50.278;19.134;2023-03-22T13:34:50;14.50;12.00;10.00
69746;PMS7003;57018;50.278;19.134;2023-03-22T13:37:23;16.00;15.00;11.00
69746;PMS7003;57018;50.278;19.134;2023-03-22T13:40:00;17.00;16.50;10.50
69746;PMS7003;57018;50.278;19.134;2023-03-22T13:42:39;13.50;13.50;8.00
69746;PMS7003;57018;50.278;19.134;2023-03-22T13:45:27;14.00;12.00;10.00
69746;PMS7003;57018;50.278;19.134;2023-03-22T13:48:03;13.50;13.50;8.50
69746;PMS7003;57018;50.278;19.134;2023-03-22T13:50:37;15.00;15.00;11.00
69746;PMS7003;57018;50.278;19.134;2023-03-22T13:53:12;11.00;9.00;7.00
69746;PMS7003;57018;50.278;19.134;2023-03-22T13:55:56;16.00;15.50;12.00
69746;PMS7003;57018;50.278;19.134;2023-03-22T13:58:47;14.00;13.00;8.50
69746;PMS7003;57018;50.278;19.134;2023-03-22T14:01:22;5.00;5.00;3.50
69746;PMS7003;57018;50.278;19.134;2023-03-22T14:04:01;6.00;5.33;5.00
69746;PMS7003;57018;50.278;19.134;2023-03-22T14:06:40;8.00;7.00;5.00
69746;PMS7003;57018;50.278;19.134;2023-03-22T14:09:24;5.00;5.00;4.00
69746;PMS7003;57018;50.278;19.134;2023-03-22T14:14:31;8.00;7.00;4.00
69746;PMS7003;57018;50.278;19.134;2023-03-22T14:17:12;8.50;7.50;5.50
69746;PMS7003;57018;50.278;19.134;2023-03-22T14:19:48;12.67;10.67;8.33
69746;PMS7003;57018;50.278;19.134;2023-03-22T14:22:23;14.00;13.00;8.00
69746;PMS7003;57018;50.278;19.134;2023-03-22T14:24:56;14.00;9.00;7.00
69746;PMS7003;57018;50.278;19.134;2023-03-22T14:27:30;11.00;10.00;6.50
69746;PMS7003;57018;50.278;19.134;2023-03-22T14:30:02;13.50;13.50;8.50
69746;PMS7003;57018;50.278;19.134;2023-03-22T14:32:34;11.00;10.50;8.00
69746;PMS7003;57018;50.278;19.134;2023-03-22T14:35:17;15.00;12.00;8.00
69746;PMS7003;57018;50.278;19.134;2023-03-22T14:37:49;12.00;10.00;7.00
69746;PMS7003;57018;50.278;19.134;2023-03-22T14:40:28;19.00;16.00;10.00
69746;PMS7003;57018;50.278;19.134;2023-03-22T14:43:20;15.67;12.67;9.33
69746;PMS7003;57018;50.278;19.134;2023-03-22T14:46:00;15.00;12.00;8.00
69746;PMS7003;57018;50.278;19.134;2023-03-22T14:48:32;10.00;10.00;7.00